createdAt,value
2022-11-24T00:03:24.102Z,64.50
2022-11-24T00:08:24.222Z,64.50
2022-11-24T00:13:23.894Z,135.60
2022-11-24T00:18:24.197Z,135.60
2022-11-24T00:23:24.149Z,123.00
2022-11-24T00:28:24.170Z,123.00
2022-11-24T00:33:23.909Z,387.90
2022-11-24T00:38:24.007Z,387.90
2022-11-24T00:43:23.914Z,512.30
2022-11-24T00:48:24.109Z,512.30
2022-11-24T00:53:24.235Z,488.00
2022-11-24T00:58:23.905Z,488.00
2022-11-24T01:08:24.038Z,500.50
2022-11-24T01:13:24.175Z,515.60
2022-11-24T01:18:24.027Z,515.60
2022-11-24T01:23:23.943Z,429.90
2022-11-24T01:28:23.987Z,429.90
2022-11-24T01:38:24.252Z,455.60
2022-11-24T01:43:24.252Z,465.20
2022-11-24T01:48:27.284Z,465.20
2022-11-24T01:53:24.066Z,468.70
2022-11-24T02:03:24.037Z,469.00
2022-11-24T02:08:23.933Z,469.00
2022-11-24T02:13:23.958Z,493.30
2022-11-24T02:23:23.942Z,496.20
2022-11-24T02:28:23.934Z,496.20
2022-11-24T02:33:24.257Z,479.90
2022-11-24T02:43:24.233Z,499.80
2022-11-24T02:48:23.995Z,499.80
2022-11-24T02:53:24.190Z,493.40
2022-11-24T02:58:24.026Z,493.40
2022-11-24T03:03:23.967Z,498.00
2022-11-24T03:08:24.298Z,498.00
2022-11-24T03:13:24.128Z,483.60
2022-11-24T03:18:24.269Z,483.60
2022-11-24T03:23:24.001Z,492.40
2022-11-24T03:28:24.250Z,492.40
2022-11-24T03:33:24.072Z,489.70
2022-11-24T03:38:24.202Z,489.70
2022-11-24T03:43:23.957Z,496.50
2022-11-24T03:48:24.190Z,496.50
2022-11-24T03:53:23.982Z,479.20
2022-11-24T03:58:24.164Z,479.20
2022-11-24T04:03:23.985Z,501.20
2022-11-24T04:08:24.117Z,501.20
2022-11-24T04:13:24.280Z,468.10
2022-11-24T04:18:24.058Z,468.10
2022-11-24T04:23:23.993Z,450.40
2022-11-24T04:28:24.069Z,450.40
2022-11-24T04:33:23.968Z,458.20
2022-11-24T04:39:23.991Z,458.20
2022-11-24T04:43:24.035Z,441.30
2022-11-24T04:48:24.326Z,441.30
2022-11-24T04:53:24.156Z,460.30
2022-11-24T04:58:24.280Z,460.30
2022-11-24T05:03:23.988Z,444.50
2022-11-24T05:08:23.995Z,444.50
2022-11-24T05:13:23.988Z,423.30
2022-11-24T05:18:24.021Z,423.30
2022-11-24T05:23:24.030Z,446.60
2022-11-24T05:28:24.021Z,446.60
2022-11-24T05:33:24.332Z,453.50
2022-11-24T05:38:23.990Z,453.50
2022-11-24T05:43:24.261Z,448.60
2022-11-24T05:48:24.063Z,448.60
2022-11-24T05:53:24.267Z,445.60
2022-11-24T06:03:24.313Z,452.20
2022-11-24T06:08:28.168Z,452.20
2022-11-24T06:13:24.218Z,461.70
2022-11-24T06:18:24.040Z,461.70
2022-11-24T06:23:24.142Z,451.50
2022-11-24T06:28:24.007Z,451.50
2022-11-24T06:33:24.160Z,444.20
2022-11-24T06:38:24.471Z,444.20
2022-11-24T06:43:24.080Z,459.90
2022-11-24T06:48:24.124Z,459.90
2022-11-24T06:53:24.057Z,450.80
2022-11-24T06:58:24.208Z,450.80
2022-11-24T07:03:24.689Z,473.20
2022-11-24T07:08:24.142Z,473.20
2022-11-24T07:13:24.047Z,434.20
2022-11-24T07:18:24.143Z,434.20
2022-11-24T07:23:24.301Z,464.10
2022-11-24T07:28:24.147Z,464.10
2022-11-24T07:33:24.036Z,468.80
2022-11-24T07:38:24.094Z,468.80
2022-11-24T07:43:24.060Z,462.40
2022-11-24T07:53:24.086Z,464.60
2022-11-24T07:58:27.595Z,464.60
2022-11-24T08:03:24.112Z,454.90
2022-11-24T08:08:24.318Z,454.90
2022-11-24T08:13:24.061Z,452.50
2022-11-24T08:18:24.275Z,452.50
2022-11-24T08:23:24.129Z,442.50
2022-11-24T08:28:24.085Z,442.50
2022-11-24T08:33:24.098Z,437.80
2022-11-24T08:38:24.488Z,437.80
2022-11-24T08:43:24.338Z,438.50
2022-11-24T08:48:24.184Z,438.50
2022-11-24T08:53:24.361Z,451.20
2022-11-24T08:58:24.180Z,451.20
2022-11-24T09:03:24.309Z,447.00
2022-11-24T09:08:24.112Z,447.00
2022-11-24T09:13:24.290Z,429.90
2022-11-24T09:18:28.883Z,429.90
2022-11-24T09:23:24.264Z,432.40
2022-11-24T09:28:24.105Z,432.40
2022-11-24T09:33:24.245Z,441.10
2022-11-24T09:38:24.112Z,441.10
2022-11-24T09:43:24.208Z,440.30
2022-11-24T09:48:24.103Z,440.30
2022-11-24T09:53:24.176Z,441.30
2022-11-24T09:58:24.135Z,441.30
2022-11-24T10:03:24.437Z,440.50
2022-11-24T10:08:24.247Z,440.50
2022-11-24T10:13:24.392Z,426.00
2022-11-24T10:18:24.130Z,426.00
2022-11-24T10:23:24.377Z,426.10
2022-11-24T10:28:24.197Z,426.10
2022-11-24T10:33:30.142Z,425.20
2022-11-24T10:43:24.144Z,431.20
2022-11-24T10:53:24.260Z,427.10
2022-11-24T10:58:24.254Z,427.10
2022-11-24T11:03:24.175Z,401.20
2022-11-24T11:08:24.391Z,401.20
2022-11-24T11:13:24.247Z,419.70
2022-11-24T11:18:24.359Z,419.70
2022-11-24T11:23:24.165Z,424.00
2022-11-24T11:28:24.337Z,424.00
2022-11-24T11:38:24.325Z,429.20
2022-11-24T11:43:24.181Z,426.00
2022-11-24T11:48:24.260Z,426.00
2022-11-24T11:53:24.192Z,427.50
2022-11-24T11:58:24.280Z,427.50
2022-11-24T12:03:24.344Z,429.60
2022-11-24T12:08:24.336Z,429.60
2022-11-24T12:13:24.384Z,430.00
2022-11-24T12:18:48.986Z,430.00
2022-11-24T12:23:24.152Z,420.40
2022-11-24T12:28:24.731Z,420.40
2022-11-24T12:33:24.321Z,431.40
2022-11-24T12:38:24.534Z,431.40
2022-11-24T12:43:24.180Z,438.00
2022-11-24T12:48:24.238Z,438.00
2022-11-24T12:53:24.256Z,433.30
2022-11-24T12:58:24.368Z,433.30
2022-11-24T13:03:24.167Z,429.90
2022-11-24T13:08:24.207Z,429.90
2022-11-24T13:13:24.206Z,434.90
2022-11-24T13:18:24.262Z,434.90
2022-11-24T13:23:24.388Z,429.90
2022-11-24T13:28:53.931Z,429.90
2022-11-24T13:33:27.074Z,430.00
2022-11-24T13:38:24.249Z,430.00
2022-11-24T13:43:24.531Z,431.40
2022-11-24T13:48:24.261Z,431.40
2022-11-24T13:53:24.358Z,435.00
2022-11-24T13:58:24.513Z,435.00
2022-11-24T14:03:24.330Z,433.50
2022-11-24T14:08:24.470Z,433.50
2022-11-24T14:13:24.232Z,437.10
2022-11-24T14:18:24.223Z,437.10
2022-11-24T14:23:24.306Z,411.20
2022-11-24T14:28:24.497Z,411.20
2022-11-24T14:33:24.223Z,419.60
2022-11-24T14:38:24.238Z,419.60
2022-11-24T14:43:24.558Z,428.90
2022-11-24T14:48:24.375Z,428.90
2022-11-24T14:58:24.249Z,420.40
2022-11-24T15:03:24.510Z,422.90
2022-11-24T15:08:24.275Z,422.90
2022-11-24T15:13:24.457Z,422.30
2022-11-24T15:18:24.230Z,422.30
2022-11-24T15:23:24.231Z,424.20
2022-11-24T15:28:24.272Z,424.20
2022-11-24T15:33:24.234Z,387.10
2022-11-24T15:38:24.639Z,387.10
2022-11-24T15:43:24.346Z,416.50
2022-11-24T15:48:24.613Z,416.50
2022-11-24T15:53:24.316Z,408.50
2022-11-24T15:58:24.484Z,408.50
2022-11-24T16:03:46.171Z,413.00
2022-11-24T16:08:24.445Z,413.00
2022-11-24T16:13:24.623Z,411.80
2022-11-24T16:18:24.621Z,411.80
2022-11-24T16:23:24.285Z,410.00
2022-11-24T16:28:24.387Z,410.00
2022-11-24T16:33:24.506Z,419.20
2022-11-24T16:38:24.334Z,419.20
2022-11-24T16:43:24.352Z,425.30
2022-11-24T16:48:24.298Z,425.30
2022-11-24T16:53:24.300Z,429.00
2022-11-24T16:58:24.599Z,429.00
2022-11-24T17:03:24.270Z,434.50
2022-11-24T17:08:25.928Z,434.50
2022-11-24T17:13:24.428Z,427.30
2022-11-24T17:18:25.533Z,427.30
2022-11-24T17:23:24.349Z,437.50
2022-11-24T17:28:24.643Z,437.50
2022-11-24T17:33:24.462Z,432.30
2022-11-24T17:38:24.461Z,432.30
2022-11-24T17:43:24.292Z,421.40
2022-11-24T17:48:24.458Z,421.40
2022-11-24T17:53:24.503Z,426.10
2022-11-24T17:58:24.400Z,426.10
2022-11-24T18:03:24.497Z,438.50
2022-11-24T18:08:24.477Z,438.50
2022-11-24T18:13:54.445Z,438.10
2022-11-24T18:18:24.580Z,438.10
2022-11-24T18:23:24.658Z,433.30
2022-11-24T18:28:24.628Z,433.30
2022-11-24T18:33:24.757Z,432.60
2022-11-24T18:38:24.878Z,432.60
2022-11-24T18:43:24.654Z,432.80
2022-11-24T18:48:24.562Z,432.80
2022-11-24T18:53:24.543Z,403.80
2022-11-24T18:58:24.753Z,403.80
2022-11-24T19:03:24.649Z,398.50
2022-11-24T19:08:24.507Z,398.50
2022-11-24T19:13:24.957Z,402.70
2022-11-24T19:18:24.750Z,402.70
2022-11-24T19:23:24.881Z,411.50
2022-11-24T19:28:24.465Z,411.50
2022-11-24T19:33:24.913Z,414.00
2022-11-24T19:38:29.686Z,414.00
2022-11-24T19:43:25.156Z,407.40
2022-11-24T19:48:24.697Z,407.40
2022-11-24T19:53:24.803Z,412.60
2022-11-24T19:58:24.702Z,412.60
2022-11-24T20:03:25.447Z,414.80
2022-11-24T20:08:24.866Z,414.80
2022-11-24T20:13:24.632Z,410.20
2022-11-24T20:18:24.624Z,410.20
2022-11-24T20:23:24.739Z,414.30
2022-11-24T20:28:24.685Z,414.30
2022-11-24T20:33:24.706Z,419.60
2022-11-24T20:38:24.785Z,419.60
2022-11-24T20:43:24.369Z,414.10
2022-11-24T20:48:24.771Z,414.10
2022-11-24T20:53:24.603Z,417.40
2022-11-24T20:58:24.670Z,417.40
2022-11-24T21:03:24.579Z,408.90
2022-11-24T21:08:24.708Z,408.90
2022-11-24T21:13:24.685Z,413.20
2022-11-24T21:18:24.389Z,413.20
2022-11-24T21:23:24.673Z,422.60
2022-11-24T21:28:24.740Z,422.60
2022-11-24T21:33:24.517Z,423.30
2022-11-24T21:38:24.382Z,423.30
2022-11-24T21:43:24.532Z,424.90
2022-11-24T21:48:24.669Z,424.90
2022-11-24T21:53:24.478Z,422.90
2022-11-24T21:58:24.635Z,422.90
2022-11-24T22:03:24.417Z,425.50
2022-11-24T22:08:24.600Z,425.50
2022-11-24T22:13:24.750Z,431.40
2022-11-24T22:18:24.535Z,431.40
2022-11-24T22:23:24.726Z,433.40
2022-11-24T22:28:24.411Z,433.40
2022-11-24T22:33:24.786Z,426.30
2022-11-24T22:38:24.421Z,426.30
2022-11-24T22:43:24.428Z,435.10
2022-11-24T22:48:24.442Z,435.10
2022-11-24T22:53:24.422Z,437.90
2022-11-24T22:58:24.463Z,437.90
2022-11-24T23:03:24.499Z,426.80
2022-11-24T23:08:24.730Z,426.80
2022-11-24T23:13:24.405Z,437.60
2022-11-24T23:18:24.708Z,437.60
2022-11-24T23:23:24.501Z,430.70
2022-11-24T23:33:24.766Z,430.50
2022-11-24T23:38:24.650Z,430.50
2022-11-24T23:43:24.780Z,431.70
2022-11-24T23:48:24.572Z,431.70
2022-11-24T23:53:24.451Z,424.60
2022-11-24T23:58:24.565Z,424.60
